createdAt,value
2023-03-23T00:26:01.684Z,15.72
2023-03-23T00:40:52.558Z,15.80
2023-03-23T00:55:43.871Z,15.88
2023-03-23T01:10:35.358Z,15.97
2023-03-23T01:25:27.475Z,16.07
2023-03-23T01:40:19.822Z,16.16
2023-03-23T01:55:11.274Z,16.31
2023-03-23T02:10:03.458Z,16.21
2023-03-23T02:40:17.955Z,16.21
2023-03-23T03:25:21.197Z,16.24
2023-03-23T03:40:15.551Z,16.27
2023-03-23T03:55:10.133Z,16.25
2023-03-23T04:24:56.204Z,16.21
2023-03-23T04:54:36.943Z,16.09
2023-03-23T05:39:10.230Z,15.61
2023-03-23T05:54:01.044Z,15.47
2023-03-23T06:08:52.637Z,15.39
2023-03-23T06:23:43.747Z,15.31
2023-03-23T06:38:34.281Z,15.17
2023-03-23T06:53:25.339Z,15.04
2023-03-23T07:08:16.237Z,14.97
2023-03-23T07:23:07.893Z,14.91
2023-03-23T07:37:59.678Z,14.88
2023-03-23T07:52:51.358Z,14.91
2023-03-23T08:07:43.304Z,15.20
2023-03-23T08:22:39.359Z,15.46
2023-03-23T08:37:27.437Z,15.98
2023-03-23T08:52:19.749Z,16.32
2023-03-23T09:07:11.279Z,16.18
2023-03-23T09:22:01.938Z,16.20
2023-03-23T09:36:53.282Z,15.89
2023-03-23T09:51:43.812Z,15.53
2023-03-23T10:06:35.154Z,15.28
2023-03-23T10:21:25.317Z,15.20
2023-03-23T10:36:21.755Z,15.09
2023-03-23T10:51:16.379Z,15.13
2023-03-23T11:06:08.608Z,15.34
2023-03-23T11:21:00.098Z,15.24
2023-03-23T11:35:53.469Z,15.47
2023-03-23T11:50:55.956Z,15.66
2023-03-23T12:06:02.640Z,15.97
2023-03-23T12:21:23.946Z,16.18
2023-03-23T12:36:42.506Z,16.21
2023-03-23T12:51:51.822Z,16.25
2023-03-23T13:06:48.202Z,16.22
2023-03-23T13:21:51.190Z,16.25
2023-03-23T13:36:42.431Z,16.81
2023-03-23T13:51:44.736Z,17.22
2023-03-23T14:06:40.883Z,17.38
2023-03-23T14:21:31.825Z,17.19
2023-03-23T14:36:26.741Z,17.27
2023-03-23T14:51:20.849Z,17.12
2023-03-23T15:06:14.456Z,17.12
2023-03-23T15:21:09.227Z,17.10
2023-03-23T15:36:01.570Z,17.04
2023-03-23T16:05:45.607Z,17.07
2023-03-23T17:20:02.585Z,16.81
2023-03-23T18:49:08.570Z,16.50
2023-03-23T19:04:00.143Z,16.51
2023-03-23T19:18:51.514Z,16.56
2023-03-23T19:33:43.347Z,16.61
2023-03-23T19:48:36.251Z,16.58
2023-03-23T20:03:26.354Z,16.58
2023-03-23T20:18:18.389Z,16.58
2023-03-23T20:33:11.639Z,16.58
2023-03-23T20:48:03.968Z,16.58
2023-03-23T21:02:53.778Z,16.54
2023-03-23T21:17:45.251Z,16.42
2023-03-23T21:32:37.216Z,16.32
2023-03-23T21:47:28.700Z,16.20
2023-03-23T22:02:27.923Z,16.11
2023-03-23T22:17:19.585Z,16.05
2023-03-23T22:32:10.956Z,16.04
2023-03-23T22:47:02.573Z,15.94
2023-03-23T23:01:53.066Z,15.73
2023-03-23T23:16:44.330Z,15.49
2023-03-23T23:31:34.369Z,15.30
2023-03-23T23:46:25.287Z,15.14
